Terminal Aerodrome Forecast
Issued by NWS Jackson, MS

Home | Current Version | Previous Version | Text Only | Print | Product List | Glossary On
Versions: 1 2 3 4 5 6 7 8 9 10 11 12 13 14 15 16 17
021
FTUS44 KJAN 242320
TAFHBG
TAF
KHBG 242320Z 2500/2524 16015KT P6SM FEW035
     FM250100 15012KT P6SM BKN025 BKN050
     FM250800 16008KT P6SM VCSH BKN015 OVC250
     FM251200 16009KT P6SM VCTS BKN015CB BKN250
     FM251600 17011KT 6SM SHRA VCTS BKN025CB OVC250=

USA.gov is the U.S. government's official web portal to all federal, state and local government web resources and services.